Berger, MO (63014)

01:03 AM CST die 06o February, anno 2016 (GMT -0600)
St. George | | Change Station
CLOSE
Current Station
Personal Weather Stations
Location: Hermann, MO
Elevation: 572 ft
Nearby Weather Stations

Elev 572 ft 38.70 °N, 91.44 °W | Updated 4 seconds ago

Aequaliter Nubila
Aequaliter Nubila
29.1 °F
Feels Like 29 °F
N
0.0
Ventus Variabilis Ventus from Aquilo
Gusts 0.0 mph

Hodie
High -- | Low -- °F
--% Chance of Precip.
Yesterday
High -- | Low -- °F
Precip. -- in
Pressio 30.31 in
Visibilitas 10.0 milia passuum
Clouds Nubes Dispersae 11000 ft
Frigus Venti 29 °F
Frigus in quo Ros apparet 23 °F
Umor 77%
Rainfall 0.00 in
Snow Depth Not available.
7:06 AM 5:32 PM
Waning Crescent, 7% visible
METAR KFYG 060655Z AUTO 00000KT 10SM SCT110 M02/M04 A3031 RMK AO2
Pressio 30.31 in
Visibilitas 10.0 milia passuum
Clouds Nubes Dispersae 11000 ft
Frigus Venti 29 °F
Frigus in quo Ros apparet 23 °F
Umor 77%
Rainfall 0.00 in
Snow Depth Not available.
7:06 AM 5:32 PM
Waning Crescent, 7% visible
METAR KFYG 060655Z AUTO 00000KT 10SM SCT110 M02/M04 A3031 RMK AO2

10-Day Weather Forecast

Almanac

Astronomy

Feb. 06, 2016 Rise Set
Actual Time
Civil Twilight
Nautical Twilight
Astronomical Twilight
Moon
Length Of Visible Light
Length of Day
Tomorrow will be .
, % of the Moon is Illuminated

Today's Extremes

State Highs State Lows

Community

WunderPhotos

Upload Photos

1,890,932 photos uploaded!

WunderBlog® & News

Nearby

Air Quality

  Air Quality AQ Index Pollutant
Not available.

Snow Depth

Station Depth Elevation

Earthquake Activity

City Distance Mag. Time & Date
Minimum magnitude displayed is 2.5.

Coastal Water Temperatures

Locus Calor

Stations

Nearby Weather Stations

Station Location Temp Frigus Venti Frigus in quo Ros apparet Umor Ventus Precip. Elev Renovata Type
                   

Watches & Warnings

There are currently no watches in effect.